createdAt,value
2016-10-16T00:00:32.458Z,0
2016-10-16T00:01:32.127Z,0
2016-10-16T00:02:32.438Z,0
2016-10-16T00:03:32.413Z,0
2016-10-16T00:04:32.087Z,0
2016-10-16T00:05:32.063Z,0
2016-10-16T00:06:32.365Z,0
2016-10-16T00:07:32.342Z,0
2016-10-16T00:08:32.326Z,0
2016-10-16T00:09:32.307Z,0
2016-10-16T00:10:32.296Z,0
2016-10-16T00:11:32.275Z,0
2016-10-16T00:12:32.269Z,0
2016-10-16T00:13:31.928Z,0
2016-10-16T00:14:31.915Z,0
2016-10-16T00:15:32.210Z,0
2016-10-16T00:16:32.208Z,0
2016-10-16T00:17:32.177Z,0
2016-10-16T00:18:32.166Z,0
2016-10-16T00:19:31.827Z,0
2016-10-16T00:20:32.147Z,0
2016-10-16T00:21:31.812Z,0
2016-10-16T00:22:32.093Z,0
2016-10-16T00:23:32.078Z,0
2016-10-16T00:24:31.749Z,0
2016-10-16T00:25:32.057Z,0
2016-10-16T00:26:32.030Z,0
2016-10-16T00:27:32.019Z,0
2016-10-16T00:28:31.992Z,0
2016-10-16T00:29:31.980Z,0
2016-10-16T00:30:31.963Z,0
2016-10-16T00:31:31.638Z,0
2016-10-16T00:32:31.936Z,0
2016-10-16T00:33:31.909Z,0
2016-10-16T00:34:31.578Z,0
2016-10-16T00:35:31.875Z,0
2016-10-16T00:36:31.872Z,0
2016-10-16T00:37:31.540Z,0
2016-10-16T00:38:31.842Z,0
2016-10-16T00:39:31.514Z,0
2016-10-16T00:40:31.812Z,0
2016-10-16T00:41:31.788Z,0
2016-10-16T00:42:31.768Z,0
2016-10-16T00:43:31.757Z,0
2016-10-16T00:44:31.736Z,0
2016-10-16T00:45:31.712Z,0
2016-10-16T00:46:31.705Z,0
2016-10-16T00:47:31.376Z,0
2016-10-16T00:48:31.348Z,0
2016-10-16T00:49:31.337Z,0
2016-10-16T00:50:31.636Z,0
2016-10-16T00:51:30.988Z,0
2016-10-16T00:52:31.625Z,0
2016-10-16T00:53:31.266Z,0
2016-10-16T00:54:31.570Z,0
2016-10-16T00:55:31.248Z,0
2016-10-16T00:56:31.537Z,0
2016-10-16T00:57:31.521Z,0
2016-10-16T00:58:31.518Z,0
2016-10-16T00:59:31.489Z,0
2016-10-16T01:00:31.489Z,0
2016-10-16T01:01:31.144Z,0
2016-10-16T01:02:31.435Z,0
2016-10-16T01:03:31.428Z,0
2016-10-16T01:04:31.423Z,0
2016-10-16T01:05:31.391Z,0
2016-10-16T01:06:31.368Z,0
2016-10-16T01:07:31.353Z,0
2016-10-16T01:08:31.027Z,0
2016-10-16T01:09:31.320Z,0
2016-10-16T01:10:31.307Z,0
2016-10-16T01:11:31.288Z,0
2016-10-16T01:12:31.274Z,0
2016-10-16T01:13:31.262Z,0
2016-10-16T01:14:31.244Z,0
2016-10-16T01:15:31.225Z,0
2016-10-16T01:16:31.206Z,0
2016-10-16T01:17:31.190Z,0
2016-10-16T01:18:31.187Z,0
2016-10-16T01:19:31.164Z,0
2016-10-16T01:20:31.143Z,0
2016-10-16T01:21:30.811Z,0
2016-10-16T01:22:31.104Z,0
2016-10-16T01:23:31.093Z,0
2016-10-16T01:24:31.071Z,0
2016-10-16T01:25:31.064Z,0
2016-10-16T01:26:31.043Z,0
2016-10-16T01:27:31.026Z,0
2016-10-16T01:28:30.693Z,0
2016-10-16T01:29:30.678Z,0
2016-10-16T01:30:30.978Z,0
2016-10-16T01:31:30.974Z,0
2016-10-16T01:32:30.313Z,0
2016-10-16T01:33:30.926Z,0
2016-10-16T01:34:30.910Z,0
2016-10-16T01:35:30.892Z,0
2016-10-16T01:36:30.882Z,0
2016-10-16T01:37:30.880Z,0
2016-10-16T01:38:30.850Z,0
2016-10-16T01:39:30.832Z,0
2016-10-16T01:40:30.809Z,0
2016-10-16T01:41:30.796Z,0
2016-10-16T01:42:30.463Z,0
2016-10-16T01:43:30.775Z,0
2016-10-16T01:44:30.742Z,0
2016-10-16T01:45:30.739Z,0
2016-10-16T01:46:30.708Z,0
2016-10-16T01:47:30.396Z,0
2016-10-16T01:48:30.679Z,0
2016-10-16T01:49:30.672Z,0
2016-10-16T01:50:30.651Z,0
2016-10-16T01:51:30.627Z,0
2016-10-16T01:52:30.619Z,0
2016-10-16T01:53:30.594Z,0
2016-10-16T01:54:30.583Z,0
2016-10-16T01:55:30.248Z,0
2016-10-16T01:56:30.545Z,0
2016-10-16T01:57:30.211Z,0
2016-10-16T01:58:30.198Z,0
2016-10-16T01:59:30.497Z,0
2016-10-16T02:00:30.484Z,0
2016-10-16T02:01:30.467Z,0
2016-10-16T02:02:30.131Z,0
2016-10-16T02:03:30.121Z,0
2016-10-16T02:04:30.103Z,0
2016-10-16T02:05:30.403Z,0
2016-10-16T02:06:30.388Z,0
2016-10-16T02:07:30.361Z,0
2016-10-16T02:08:30.339Z,0
2016-10-16T02:09:30.330Z,0
2016-10-16T02:10:30.317Z,0
2016-10-16T02:11:30.323Z,0
2016-10-16T02:12:29.965Z,0
2016-10-16T02:13:30.265Z,0
2016-10-16T02:14:30.252Z,0
2016-10-16T02:15:29.923Z,0
2016-10-16T02:16:30.209Z,0
2016-10-16T02:17:30.194Z,0
2016-10-16T02:18:30.193Z,0
2016-10-16T02:19:29.853Z,0
2016-10-16T02:20:30.148Z,0
2016-10-16T02:21:30.145Z,0
2016-10-16T02:22:30.120Z,0
2016-10-16T02:23:29.777Z,0
2016-10-16T02:24:29.771Z,0
2016-10-16T02:25:29.446Z,0
2016-10-16T02:26:30.041Z,0
2016-10-16T02:27:30.030Z,0
2016-10-16T02:28:30.012Z,0
2016-10-16T02:29:30.002Z,0
2016-10-16T02:30:29.676Z,0
2016-10-16T02:31:29.649Z,0
2016-10-16T02:32:29.960Z,0
2016-10-16T02:33:29.616Z,0
2016-10-16T02:34:29.914Z,0
2016-10-16T02:35:29.899Z,0
2016-10-16T02:36:29.895Z,0
2016-10-16T02:37:29.864Z,0
2016-10-16T02:38:29.849Z,0
2016-10-16T02:39:29.834Z,0
2016-10-16T02:40:29.821Z,0
2016-10-16T02:41:29.802Z,0
2016-10-16T02:42:29.791Z,0
2016-10-16T02:43:29.769Z,0
2016-10-16T02:44:29.750Z,0
2016-10-16T02:45:29.727Z,0
2016-10-16T02:46:29.410Z,0
2016-10-16T02:47:29.391Z,0
2016-10-16T02:48:29.688Z,0
2016-10-16T02:49:29.352Z,0
2016-10-16T02:50:29.653Z,0
2016-10-16T02:51:29.640Z,0
2016-10-16T02:52:29.625Z,0
2016-10-16T02:53:29.602Z,0
2016-10-16T02:54:29.579Z,0
2016-10-16T02:55:29.572Z,0
2016-10-16T02:56:29.550Z,0
2016-10-16T02:57:29.225Z,0
2016-10-16T02:58:29.515Z,0
2016-10-16T02:59:29.503Z,0
2016-10-16T03:00:29.492Z,0
2016-10-16T03:01:29.157Z,0
2016-10-16T03:02:28.823Z,0
2016-10-16T03:03:29.438Z,0
2016-10-16T03:04:29.429Z,0
2016-10-16T03:05:29.402Z,0
2016-10-16T03:06:29.395Z,0
2016-10-16T03:07:29.053Z,0
2016-10-16T03:08:29.042Z,0
2016-10-16T03:09:29.333Z,0
2016-10-16T03:10:29.323Z,0
2016-10-16T03:11:28.993Z,0
2016-10-16T03:12:29.284Z,0
2016-10-16T03:13:29.278Z,0
2016-10-16T03:14:29.251Z,0
2016-10-16T03:15:29.244Z,0
2016-10-16T03:16:29.229Z,0
2016-10-16T03:17:29.198Z,0
2016-10-16T03:18:28.876Z,0
2016-10-16T03:19:29.175Z,0
2016-10-16T03:20:29.152Z,0
2016-10-16T03:21:28.501Z,0
2016-10-16T03:22:29.114Z,0
2016-10-16T03:23:29.107Z,0
2016-10-16T03:24:29.091Z,0
2016-10-16T03:25:29.102Z,0
2016-10-16T03:26:28.755Z,0
2016-10-16T03:27:29.036Z,0
2016-10-16T03:28:29.027Z,0
2016-10-16T03:29:29.006Z,0
2016-10-16T03:30:28.995Z,0
2016-10-16T03:31:28.970Z,0
2016-10-16T03:32:28.951Z,0
2016-10-16T03:33:28.635Z,0
2016-10-16T03:34:28.923Z,0
2016-10-16T03:35:28.917Z,0
2016-10-16T03:36:28.890Z,0
2016-10-16T03:37:28.561Z,0
2016-10-16T03:38:28.540Z,0
2016-10-16T03:39:28.844Z,0
2016-10-16T03:40:28.505Z,0
2016-10-16T03:41:28.832Z,0
2016-10-16T03:42:28.477Z,0
2016-10-16T03:43:28.768Z,0
2016-10-16T03:44:28.444Z,0
2016-10-16T03:45:28.740Z,0
2016-10-16T03:46:28.738Z,0
2016-10-16T03:47:28.703Z,0
2016-10-16T03:48:28.689Z,0
2016-10-16T03:49:28.680Z,0
2016-10-16T03:50:28.649Z,0
2016-10-16T03:51:28.641Z,0
2016-10-16T03:52:28.314Z,0
2016-10-16T03:53:28.619Z,0
2016-10-16T03:54:28.278Z,0
2016-10-16T03:55:28.581Z,0
2016-10-16T03:56:28.561Z,0
2016-10-16T03:57:28.230Z,0
2016-10-16T03:58:28.531Z,0
2016-10-16T03:59:28.200Z,0
2016-10-16T04:00:28.177Z,0
2016-10-16T04:01:28.159Z,0
2016-10-16T04:02:28.459Z,0
2016-10-16T04:03:28.445Z,0
2016-10-16T04:04:28.106Z,0
2016-10-16T04:05:28.410Z,0
2016-10-16T04:06:28.394Z,0
2016-10-16T04:07:28.381Z,0
2016-10-16T04:08:28.359Z,0
2016-10-16T04:09:28.044Z,0
2016-10-16T04:10:28.009Z,0
2016-10-16T04:11:28.322Z,0
2016-10-16T04:12:27.661Z,0
2016-10-16T04:13:28.272Z,0
2016-10-16T04:14:28.262Z,0
2016-10-16T04:15:27.939Z,0
2016-10-16T04:16:28.231Z,0
2016-10-16T04:17:28.217Z,0
2016-10-16T04:18:28.202Z,0
2016-10-16T04:19:27.544Z,0
2016-10-16T04:20:28.164Z,0
2016-10-16T04:21:28.145Z,0
2016-10-16T04:22:28.140Z,0
2016-10-16T04:23:28.105Z,0
2016-10-16T04:24:28.086Z,0
2016-10-16T04:25:28.079Z,0
2016-10-16T04:26:27.737Z,0
2016-10-16T04:27:28.051Z,0
2016-10-16T04:28:28.025Z,0
2016-10-16T04:29:28.014Z,0
2016-10-16T04:30:27.687Z,0
2016-10-16T04:31:27.991Z,0
2016-10-16T04:32:27.960Z,0
2016-10-16T04:33:27.963Z,0
2016-10-16T04:34:27.609Z,0
2016-10-16T04:35:27.917Z,0
2016-10-16T04:36:27.587Z,0
2016-10-16T04:37:27.564Z,0
2016-10-16T04:38:27.873Z,0
2016-10-16T04:39:27.842Z,0
2016-10-16T04:40:27.834Z,0
2016-10-16T04:41:27.811Z,0
2016-10-16T04:42:27.797Z,0
2016-10-16T04:43:27.462Z,0
2016-10-16T04:44:27.443Z,0
2016-10-16T04:45:27.752Z,0
2016-10-16T04:46:27.735Z,0
2016-10-16T04:47:27.721Z,0
2016-10-16T04:48:27.382Z,0
2016-10-16T04:49:27.687Z,0
2016-10-16T04:50:27.347Z,0
2016-10-16T04:51:27.650Z,0
2016-10-16T04:52:27.637Z,0
2016-10-16T04:53:27.617Z,0
2016-10-16T04:54:27.601Z,0
2016-10-16T04:55:27.583Z,0
2016-10-16T04:56:27.573Z,0
2016-10-16T04:57:27.549Z,0
2016-10-16T04:58:27.220Z,0
2016-10-16T04:59:27.512Z,0
2016-10-16T05:00:27.512Z,0
2016-10-16T05:01:27.482Z,0
2016-10-16T05:02:26.830Z,0
2016-10-16T05:03:27.453Z,0
2016-10-16T05:04:27.436Z,0
2016-10-16T05:05:27.108Z,0
2016-10-16T05:06:27.400Z,0
2016-10-16T05:07:27.390Z,0
2016-10-16T05:08:27.365Z,0
2016-10-16T05:09:27.346Z,0
2016-10-16T05:10:27.019Z,0
2016-10-16T05:11:27.317Z,0
2016-10-16T05:12:27.304Z,0
2016-10-16T05:13:27.295Z,0
2016-10-16T05:14:27.272Z,0
2016-10-16T05:15:27.255Z,0
2016-10-16T05:16:27.242Z,0
2016-10-16T05:17:27.216Z,0
2016-10-16T05:18:27.205Z,0
2016-10-16T05:19:27.190Z,0
2016-10-16T05:20:27.179Z,0
2016-10-16T05:21:27.158Z,0
2016-10-16T05:22:27.140Z,0
2016-10-16T05:23:27.129Z,0
2016-10-16T05:24:27.104Z,0
2016-10-16T05:25:27.089Z,0
2016-10-16T05:26:27.079Z,0
2016-10-16T05:27:27.056Z,0
2016-10-16T05:28:27.041Z,0
2016-10-16T05:29:26.712Z,0
2016-10-16T05:30:26.703Z,0
2016-10-16T05:31:26.673Z,0
2016-10-16T05:32:26.668Z,0
2016-10-16T05:33:26.643Z,0
2016-10-16T05:34:26.632Z,0
2016-10-16T05:35:26.620Z,0
2016-10-16T05:36:26.601Z,0
2016-10-16T05:37:26.604Z,0
2016-10-16T05:38:26.885Z,0
2016-10-16T05:39:26.550Z,0
2016-10-16T05:40:26.844Z,0
2016-10-16T05:41:26.827Z,0
2016-10-16T05:42:26.502Z,0
2016-10-16T05:43:26.794Z,0
2016-10-16T05:44:26.777Z,0
2016-10-16T05:45:26.768Z,0
2016-10-16T05:46:26.755Z,0
2016-10-16T05:47:26.731Z,0
2016-10-16T05:48:26.708Z,0
2016-10-16T05:49:26.400Z,0
2016-10-16T05:50:26.375Z,0
2016-10-16T05:51:26.352Z,0
2016-10-16T05:52:26.335Z,0
2016-10-16T05:53:26.638Z,0
2016-10-16T05:54:26.620Z,0
2016-10-16T05:55:26.289Z,0
2016-10-16T05:56:26.585Z,0
2016-10-16T05:57:26.568Z,0
2016-10-16T05:58:25.924Z,0
2016-10-16T05:59:26.530Z,0
2016-10-16T06:00:26.212Z,0
2016-10-16T06:01:26.187Z,0
2016-10-16T06:02:26.494Z,0
2016-10-16T06:03:26.475Z,0
2016-10-16T06:04:26.463Z,0
2016-10-16T06:05:26.439Z,0
2016-10-16T06:06:26.113Z,0
2016-10-16T06:07:26.410Z,0
2016-10-16T06:08:26.400Z,0
2016-10-16T06:09:25.745Z,0
2016-10-16T06:10:26.374Z,0
2016-10-16T06:11:26.035Z,0
2016-10-16T06:12:26.322Z,0
2016-10-16T06:13:25.989Z,0
2016-10-16T06:14:26.293Z,0
2016-10-16T06:15:26.285Z,0
2016-10-16T06:16:25.940Z,0
2016-10-16T06:17:26.255Z,0
2016-10-16T06:18:26.224Z,0
2016-10-16T06:19:26.221Z,0
2016-10-16T06:20:26.196Z,0
2016-10-16T06:21:26.176Z,0
2016-10-16T06:22:26.166Z,0
2016-10-16T06:23:25.514Z,0
2016-10-16T06:24:26.136Z,0
2016-10-16T06:25:26.116Z,0
2016-10-16T06:26:25.781Z,0
2016-10-16T06:27:26.081Z,0
2016-10-16T06:28:25.766Z,0
2016-10-16T06:29:26.055Z,0
2016-10-16T06:30:26.046Z,0
2016-10-16T06:31:26.029Z,0
2016-10-16T06:32:26.015Z,0
2016-10-16T06:33:25.988Z,0
2016-10-16T06:34:25.969Z,0
2016-10-16T06:35:25.951Z,0
2016-10-16T06:36:25.955Z,0
2016-10-16T06:37:25.933Z,0
2016-10-16T06:38:25.910Z,0
2016-10-16T06:39:25.573Z,0
2016-10-16T06:40:25.873Z,0
2016-10-16T06:41:25.867Z,0
2016-10-16T06:42:25.841Z,0
2016-10-16T06:43:25.828Z,0
2016-10-16T06:44:25.813Z,0
2016-10-16T06:45:25.484Z,0
2016-10-16T06:46:25.470Z,0
2016-10-16T06:47:25.773Z,0
2016-10-16T06:48:25.748Z,0
2016-10-16T06:49:25.725Z,0
2016-10-16T06:50:25.706Z,0
2016-10-16T06:51:25.713Z,0
2016-10-16T06:52:25.682Z,0
2016-10-16T06:53:25.668Z,0
2016-10-16T06:54:25.339Z,0
2016-10-16T06:55:25.658Z,0
2016-10-16T06:56:25.627Z,0
2016-10-16T06:57:25.620Z,0
2016-10-16T06:58:25.580Z,0
2016-10-16T06:59:25.589Z,0
2016-10-16T07:00:25.569Z,0
2016-10-16T07:01:25.241Z,0
2016-10-16T07:02:25.202Z,0
2016-10-16T07:03:25.511Z,0
2016-10-16T07:04:25.181Z,0
2016-10-16T07:05:25.470Z,0
2016-10-16T07:06:25.461Z,0
2016-10-16T07:07:25.128Z,0
2016-10-16T07:08:25.432Z,0
2016-10-16T07:09:25.413Z,0
2016-10-16T07:10:25.402Z,0
2016-10-16T07:11:25.384Z,0
2016-10-16T07:12:25.373Z,0
2016-10-16T07:13:25.360Z,0
2016-10-16T07:14:25.328Z,0
2016-10-16T07:15:25.004Z,0
2016-10-16T07:16:25.297Z,0
2016-10-16T07:17:25.288Z,0
2016-10-16T07:18:25.282Z,0
2016-10-16T07:19:24.932Z,0
2016-10-16T07:20:24.940Z,0
2016-10-16T07:21:25.215Z,0
2016-10-16T07:22:25.204Z,0
2016-10-16T07:23:25.184Z,0
2016-10-16T07:24:25.175Z,0
2016-10-16T07:25:25.163Z,0
2016-10-16T07:26:24.824Z,0
2016-10-16T07:27:25.123Z,0
2016-10-16T07:28:25.106Z,0
2016-10-16T07:29:25.096Z,0
2016-10-16T07:30:25.068Z,0
2016-10-16T07:31:25.056Z,0
2016-10-16T07:32:25.054Z,0
2016-10-16T07:33:25.031Z,0
2016-10-16T07:34:25.023Z,0
2016-10-16T07:35:24.994Z,0
2016-10-16T07:36:24.349Z,0
2016-10-16T07:37:24.965Z,0
2016-10-16T07:38:24.954Z,0
2016-10-16T07:39:24.942Z,0
2016-10-16T07:40:24.609Z,0
2016-10-16T07:41:24.910Z,0
2016-10-16T07:42:24.572Z,0
2016-10-16T07:43:24.559Z,0
2016-10-16T07:44:24.538Z,0
2016-10-16T07:45:24.531Z,0
2016-10-16T07:46:24.818Z,0
2016-10-16T07:47:24.820Z,0
2016-10-16T07:48:24.799Z,0
2016-10-16T07:49:24.772Z,0
2016-10-16T07:50:24.431Z,0
2016-10-16T07:51:24.430Z,0
2016-10-16T07:52:24.410Z,0
2016-10-16T07:53:24.715Z,0
2016-10-16T07:54:24.708Z,0
2016-10-16T07:55:24.691Z,0
2016-10-16T07:56:24.660Z,0
2016-10-16T07:57:24.331Z,0
2016-10-16T07:58:24.650Z,0
2016-10-16T07:59:24.616Z,0
2016-10-16T08:00:24.597Z,0
2016-10-16T08:01:24.586Z,0
2016-10-16T08:02:24.560Z,0
2016-10-16T08:03:24.556Z,0
2016-10-16T08:04:24.224Z,0
2016-10-16T08:05:24.547Z,0
2016-10-16T08:06:24.508Z,0
2016-10-16T08:07:24.173Z,0
2016-10-16T08:08:24.470Z,0
2016-10-16T08:09:23.834Z,0
2016-10-16T08:10:24.434Z,0
2016-10-16T08:11:24.125Z,0
2016-10-16T08:12:23.785Z,0
2016-10-16T08:13:24.394Z,0
2016-10-16T08:14:24.383Z,0
2016-10-16T08:15:24.366Z,0
2016-10-16T08:16:23.715Z,0
2016-10-16T08:17:24.328Z,0
2016-10-16T08:18:24.318Z,0
2016-10-16T08:19:24.311Z,0
2016-10-16T08:20:24.286Z,0
2016-10-16T08:21:23.955Z,0
2016-10-16T08:22:24.254Z,0
2016-10-16T08:23:24.490Z,0
2016-10-16T08:24:23.903Z,0
2016-10-16T08:25:23.898Z,0
2016-10-16T08:26:23.863Z,0
2016-10-16T08:27:24.170Z,0
2016-10-16T08:28:24.151Z,0
2016-10-16T08:29:24.144Z,0
2016-10-16T08:30:24.116Z,0
2016-10-16T08:31:24.108Z,0
2016-10-16T08:32:23.780Z,0
2016-10-16T08:33:24.075Z,0
2016-10-16T08:34:23.448Z,0
2016-10-16T08:35:24.039Z,0
2016-10-16T08:36:24.038Z,0
2016-10-16T08:37:24.016Z,0
2016-10-16T08:38:23.685Z,0
2016-10-16T08:39:23.982Z,0
2016-10-16T08:40:23.639Z,0
2016-10-16T08:41:23.962Z,0
2016-10-16T08:42:23.928Z,0
2016-10-16T08:43:23.930Z,0
2016-10-16T08:44:23.902Z,0
2016-10-16T08:45:23.883Z,0
2016-10-16T08:46:23.560Z,0
2016-10-16T08:47:23.857Z,0
2016-10-16T08:48:23.838Z,0
2016-10-16T08:49:23.498Z,0
2016-10-16T08:50:23.810Z,0
2016-10-16T08:51:23.786Z,0
2016-10-16T08:52:23.455Z,0
2016-10-16T08:53:23.755Z,0
2016-10-16T08:54:22.794Z,0
2016-10-16T08:55:23.429Z,0
2016-10-16T08:56:23.709Z,0
2016-10-16T08:57:23.377Z,0
2016-10-16T08:58:23.680Z,0
2016-10-16T08:59:23.662Z,0
2016-10-16T09:00:23.341Z,0
2016-10-16T09:01:23.312Z,0
2016-10-16T09:02:23.609Z,0
2016-10-16T09:03:23.277Z,0
2016-10-16T09:04:23.593Z,0
2016-10-16T09:05:23.561Z,0
2016-10-16T09:06:23.544Z,0
2016-10-16T09:07:23.229Z,0
2016-10-16T09:08:23.200Z,0
2016-10-16T09:09:23.510Z,0
2016-10-16T09:10:23.509Z,0
2016-10-16T09:11:23.475Z,0
2016-10-16T09:12:23.140Z,0
2016-10-16T09:13:23.127Z,0
2016-10-16T09:14:23.435Z,0
2016-10-16T09:15:22.781Z,0
2016-10-16T09:16:23.400Z,0
2016-10-16T09:17:23.401Z,0
2016-10-16T09:18:23.364Z,0
2016-10-16T09:19:23.351Z,0
2016-10-16T09:20:23.025Z,0
2016-10-16T09:21:23.322Z,0
2016-10-16T09:22:23.305Z,0
2016-10-16T09:23:23.282Z,0
2016-10-16T09:24:23.269Z,0
2016-10-16T09:25:22.935Z,0
2016-10-16T09:26:23.238Z,0
2016-10-16T09:27:23.227Z,0
2016-10-16T09:28:23.218Z,0
2016-10-16T09:29:23.187Z,0
2016-10-16T09:30:22.869Z,0
2016-10-16T09:31:23.153Z,0
2016-10-16T09:32:22.829Z,0
2016-10-16T09:33:22.816Z,0
2016-10-16T09:34:22.794Z,0
2016-10-16T09:35:23.090Z,0
2016-10-16T09:36:23.071Z,0
2016-10-16T09:37:22.741Z,0
2016-10-16T09:38:22.733Z,0
2016-10-16T09:39:23.032Z,0
2016-10-16T09:40:23.018Z,0
2016-10-16T09:41:22.690Z,0
2016-10-16T09:42:22.991Z,0
2016-10-16T09:43:22.972Z,0
2016-10-16T09:44:22.967Z,0
2016-10-16T09:45:22.610Z,0
2016-10-16T09:46:22.935Z,0
2016-10-16T09:47:22.904Z,0
2016-10-16T09:48:22.889Z,0
2016-10-16T09:49:22.873Z,0
2016-10-16T09:50:22.850Z,0
2016-10-16T09:51:22.847Z,0
2016-10-16T09:52:22.828Z,0
2016-10-16T09:53:22.814Z,0
2016-10-16T09:54:22.792Z,0
2016-10-16T09:55:22.481Z,0
2016-10-16T09:56:22.758Z,0
2016-10-16T09:57:22.436Z,0
2016-10-16T09:58:22.097Z,0
2016-10-16T09:59:22.403Z,0
2016-10-16T10:00:22.705Z,0
2016-10-16T10:01:22.681Z,0
2016-10-16T10:02:22.353Z,0
2016-10-16T10:03:22.647Z,0
2016-10-16T10:04:22.640Z,0
2016-10-16T10:05:22.618Z,0
2016-10-16T10:06:22.615Z,0
2016-10-16T10:07:22.587Z,0
2016-10-16T10:08:22.253Z,0
2016-10-16T10:09:22.584Z,0
2016-10-16T10:10:22.529Z,0
2016-10-16T10:11:22.523Z,0
2016-10-16T10:12:22.507Z,0
2016-10-16T10:13:22.182Z,0
2016-10-16T10:14:22.484Z,0
2016-10-16T10:15:22.471Z,0
2016-10-16T10:16:22.440Z,0
2016-10-16T10:17:22.116Z,0
2016-10-16T10:18:21.779Z,0
2016-10-16T10:19:22.401Z,0
2016-10-16T10:20:22.381Z,0
2016-10-16T10:21:22.362Z,0
2016-10-16T10:22:22.354Z,0
2016-10-16T10:23:22.043Z,0
2016-10-16T10:24:22.015Z,0
2016-10-16T10:25:22.298Z,0
2016-10-16T10:26:22.279Z,0
2016-10-16T10:27:21.954Z,0
2016-10-16T10:28:22.277Z,0
2016-10-16T10:29:22.256Z,0
2016-10-16T10:30:21.904Z,0
2016-10-16T10:31:22.197Z,0
2016-10-16T10:32:22.195Z,0
2016-10-16T10:33:22.178Z,0
2016-10-16T10:34:21.837Z,0
2016-10-16T10:35:22.151Z,0
2016-10-16T10:36:22.133Z,0
2016-10-16T10:37:22.119Z,0
2016-10-16T10:38:22.094Z,0
2016-10-16T10:39:22.071Z,0
2016-10-16T10:40:22.057Z,0
2016-10-16T10:41:21.730Z,0
2016-10-16T10:42:21.707Z,0
2016-10-16T10:43:22.016Z,0
2016-10-16T10:44:21.994Z,0
2016-10-16T10:45:21.989Z,0
2016-10-16T10:46:21.974Z,0
2016-10-16T10:47:21.949Z,0
2016-10-16T10:48:21.620Z,0
2016-10-16T10:49:21.911Z,0
2016-10-16T10:50:21.589Z,0
2016-10-16T10:51:21.889Z,0
2016-10-16T10:52:21.873Z,0
2016-10-16T10:53:21.544Z,0
2016-10-16T10:54:21.845Z,0
2016-10-16T10:55:21.509Z,0
2016-10-16T10:56:21.484Z,0
2016-10-16T10:57:21.795Z,0
2016-10-16T10:58:21.772Z,0
2016-10-16T10:59:21.751Z,0
2016-10-16T11:00:21.427Z,0
2016-10-16T11:01:21.716Z,0
2016-10-16T11:02:21.707Z,0
2016-10-16T11:03:21.068Z,0
2016-10-16T11:04:21.687Z,0
2016-10-16T11:05:21.349Z,0
2016-10-16T11:06:21.654Z,0
2016-10-16T11:07:21.629Z,0
2016-10-16T11:08:21.620Z,0
2016-10-16T11:09:21.602Z,0
2016-10-16T11:10:21.595Z,0
2016-10-16T11:11:21.257Z,0
2016-10-16T11:12:21.237Z,0
2016-10-16T11:13:20.904Z,0
2016-10-16T11:14:21.524Z,0
2016-10-16T11:15:21.189Z,0
2016-10-16T11:16:20.855Z,0
2016-10-16T11:17:21.157Z,0
2016-10-16T11:18:21.459Z,0
2016-10-16T11:19:21.449Z,0
2016-10-16T11:20:21.107Z,0
2016-10-16T11:21:21.411Z,0
2016-10-16T11:22:21.396Z,0
2016-10-16T11:23:21.386Z,0
2016-10-16T11:24:21.041Z,0
2016-10-16T11:25:21.349Z,0
2016-10-16T11:26:21.337Z,0
2016-10-16T11:27:21.403Z,0
2016-10-16T11:28:21.304Z,0
2016-10-16T11:29:21.287Z,0
2016-10-16T11:30:21.275Z,4
2016-10-16T11:31:20.941Z,0
2016-10-16T11:32:21.249Z,0
2016-10-16T11:33:20.587Z,4
2016-10-16T11:34:21.206Z,0
2016-10-16T11:35:21.185Z,0
2016-10-16T11:36:21.174Z,0
2016-10-16T11:37:20.519Z,0
2016-10-16T11:38:21.140Z,0
2016-10-16T11:39:20.803Z,0
2016-10-16T11:40:20.807Z,0
2016-10-16T11:41:20.794Z,0
2016-10-16T11:42:20.761Z,0
2016-10-16T11:43:21.072Z,0
2016-10-16T11:44:20.719Z,0
2016-10-16T11:45:20.715Z,0
2016-10-16T11:46:21.016Z,0
2016-10-16T11:47:21.007Z,0
2016-10-16T11:48:20.982Z,4
2016-10-16T11:49:20.962Z,0
2016-10-16T11:50:20.948Z,0
2016-10-16T11:51:20.938Z,4
2016-10-16T11:52:20.910Z,0
2016-10-16T11:53:20.907Z,0
2016-10-16T11:54:20.567Z,0
2016-10-16T11:55:20.560Z,0
2016-10-16T11:56:20.536Z,0
2016-10-16T11:57:20.834Z,0
2016-10-16T11:58:20.818Z,0
2016-10-16T11:59:20.808Z,0
2016-10-16T12:00:20.787Z,0
2016-10-16T12:01:20.778Z,0
2016-10-16T12:02:20.442Z,0
2016-10-16T12:03:20.737Z,0
2016-10-16T12:04:20.727Z,0
2016-10-16T12:05:20.711Z,0
2016-10-16T12:06:20.706Z,0
2016-10-16T12:07:20.705Z,16
2016-10-16T12:08:20.660Z,12
2016-10-16T12:09:20.336Z,16
2016-10-16T12:10:20.315Z,12
2016-10-16T12:11:19.984Z,12
2016-10-16T12:12:20.592Z,16
2016-10-16T12:13:20.265Z,16
2016-10-16T12:14:20.246Z,20
2016-10-16T12:15:20.551Z,20
2016-10-16T12:16:20.226Z,16
2016-10-16T12:17:20.526Z,16
2016-10-16T12:18:20.189Z,16
2016-10-16T12:19:20.490Z,16
2016-10-16T12:20:20.158Z,12
2016-10-16T12:21:20.461Z,16
2016-10-16T12:22:20.125Z,28
2016-10-16T12:23:20.415Z,36
2016-10-16T12:24:19.779Z,28
2016-10-16T12:25:20.077Z,20
2016-10-16T12:26:20.378Z,24
2016-10-16T12:27:20.352Z,24
2016-10-16T12:28:20.349Z,24
2016-10-16T12:29:20.011Z,24
2016-10-16T12:30:20.309Z,28
2016-10-16T12:31:20.287Z,28
2016-10-16T12:32:20.290Z,28
2016-10-16T12:33:20.258Z,28
2016-10-16T12:34:20.241Z,24
2016-10-16T12:35:20.231Z,20
2016-10-16T12:36:20.210Z,16
2016-10-16T12:37:20.193Z,20
2016-10-16T12:38:20.178Z,24
2016-10-16T12:39:20.156Z,28
2016-10-16T12:40:19.836Z,20
2016-10-16T12:41:20.131Z,16
2016-10-16T12:42:19.489Z,16
2016-10-16T12:43:20.100Z,16
2016-10-16T12:44:20.080Z,16
2016-10-16T12:45:20.070Z,16
2016-10-16T12:46:20.051Z,24
2016-10-16T12:47:20.036Z,24
2016-10-16T12:48:20.021Z,24
2016-10-16T12:49:19.694Z,28
2016-10-16T12:50:19.978Z,28
2016-10-16T12:51:19.651Z,24
2016-10-16T12:52:19.324Z,28
2016-10-16T12:53:19.961Z,44
2016-10-16T12:54:19.929Z,76
2016-10-16T12:55:19.910Z,108
2016-10-16T12:56:19.898Z,96
2016-10-16T12:57:19.561Z,76
2016-10-16T12:58:19.858Z,84
2016-10-16T12:59:19.521Z,104
2016-10-16T13:00:19.832Z,120
2016-10-16T13:01:19.815Z,128
2016-10-16T13:02:19.175Z,120
2016-10-16T13:03:19.465Z,116
2016-10-16T13:04:19.449Z,140
2016-10-16T13:05:19.755Z,196
2016-10-16T13:06:19.736Z,240
2016-10-16T13:07:19.083Z,252
2016-10-16T13:08:19.380Z,252
2016-10-16T13:09:19.687Z,240
2016-10-16T13:10:19.669Z,240
2016-10-16T13:11:19.655Z,256
2016-10-16T13:12:19.641Z,348
2016-10-16T13:13:19.627Z,424
2016-10-16T13:14:19.622Z,448
2016-10-16T13:15:19.584Z,468
2016-10-16T13:16:19.585Z,476
2016-10-16T13:17:19.566Z,476
2016-10-16T13:18:19.225Z,476
2016-10-16T13:19:19.218Z,480
2016-10-16T13:20:19.507Z,492
2016-10-16T13:21:19.515Z,512
2016-10-16T13:22:19.183Z,520
2016-10-16T13:23:19.465Z,520
2016-10-16T13:24:19.449Z,520
2016-10-16T13:25:19.432Z,516
2016-10-16T13:26:19.420Z,516
2016-10-16T13:27:19.403Z,516
2016-10-16T13:28:19.064Z,504
2016-10-16T13:29:19.367Z,500
2016-10-16T13:30:19.039Z,480
2016-10-16T13:31:19.024Z,464
2016-10-16T13:32:19.321Z,464
2016-10-16T13:33:18.985Z,452
2016-10-16T13:34:19.313Z,444
2016-10-16T13:35:19.287Z,436
2016-10-16T13:36:18.936Z,420
2016-10-16T13:37:19.245Z,412
2016-10-16T13:38:18.602Z,400
2016-10-16T13:39:19.209Z,392
2016-10-16T13:40:19.194Z,376
2016-10-16T13:41:19.486Z,360
2016-10-16T13:42:19.168Z,352
2016-10-16T13:43:18.833Z,340
2016-10-16T13:44:18.812Z,332
2016-10-16T13:45:19.125Z,324
2016-10-16T13:46:18.476Z,312
2016-10-16T13:47:18.778Z,304
2016-10-16T13:48:18.769Z,296
2016-10-16T13:49:19.071Z,288
2016-10-16T13:50:19.034Z,280
2016-10-16T13:51:19.035Z,268
2016-10-16T13:52:19.010Z,260
2016-10-16T13:53:18.360Z,252
2016-10-16T13:54:18.985Z,240
2016-10-16T13:55:18.664Z,224
2016-10-16T13:56:18.957Z,216
2016-10-16T13:57:18.930Z,200
2016-10-16T13:58:18.917Z,192
2016-10-16T13:59:18.942Z,184
2016-10-16T14:00:18.878Z,172
2016-10-16T14:01:18.880Z,168
2016-10-16T14:02:18.544Z,160
2016-10-16T14:03:18.532Z,156
2016-10-16T14:04:18.524Z,152
2016-10-16T14:05:18.818Z,152
2016-10-16T14:06:18.803Z,140
2016-10-16T14:07:18.794Z,96
2016-10-16T14:08:18.451Z,96
2016-10-16T14:09:18.752Z,132
2016-10-16T14:10:18.733Z,136
2016-10-16T14:11:18.407Z,124
2016-10-16T14:12:18.387Z,108
2016-10-16T14:13:18.692Z,120
2016-10-16T14:14:18.038Z,44
2016-10-16T14:15:18.347Z,40
2016-10-16T14:16:18.644Z,48
2016-10-16T14:17:18.627Z,48
2016-10-16T14:18:18.612Z,44
2016-10-16T14:19:18.596Z,32
2016-10-16T14:20:18.273Z,32
2016-10-16T14:21:18.282Z,28
2016-10-16T14:22:18.244Z,36
2016-10-16T14:23:18.223Z,84
2016-10-16T14:24:18.210Z,108
2016-10-16T14:25:18.511Z,104
2016-10-16T14:26:18.176Z,100
2016-10-16T14:27:18.481Z,100
2016-10-16T14:28:18.461Z,100
2016-10-16T14:29:18.460Z,96
2016-10-16T14:30:18.433Z,96
2016-10-16T14:31:18.102Z,96
2016-10-16T14:32:18.397Z,88
2016-10-16T14:33:18.396Z,84
2016-10-16T14:34:18.372Z,84
2016-10-16T14:35:18.356Z,72
2016-10-16T14:36:18.331Z,44
2016-10-16T14:37:18.322Z,24
2016-10-16T14:38:18.307Z,20